sensor_id;sensor_type;location;lat;lon;timestamp;pressure;altitude;pressure_sealevel;temperature;humidity
1726;BME280;41776;48.260;8.928;2023-06-24T00:00:04;52295.84;;;-145.69;nan
1726;BME280;41776;48.260;8.928;2023-06-24T00:02:38;52272.09;;;-145.69;nan
1726;BME280;41776;48.260;8.928;2023-06-24T00:05:09;52256.25;;;-145.69;nan
1726;BME280;41776;48.260;8.928;2023-06-24T00:07:39;52311.69;;;-145.69;nan
1726;BME280;41776;48.260;8.928;2023-06-24T00:10:10;52254.28;;;-145.69;nan
1726;BME280;41776;48.260;8.928;2023-06-24T00:12:41;52319.63;;;-145.69;nan
1726;BME280;41776;48.260;8.928;2023-06-24T00:15:08;52244.38;;;-145.69;nan
1726;BME280;41776;48.260;8.928;2023-06-24T00:17:36;52244.38;;;-145.69;nan
1726;BME280;41776;48.260;8.928;2023-06-24T00:20:08;52248.34;;;-145.69;nan
1726;BME280;41776;48.260;8.928;2023-06-24T00:22:40;52283.97;;;-145.69;nan
1726;BME280;41776;48.260;8.928;2023-06-24T00:25:09;52272.09;;;-145.69;nan
1726;BME280;41776;48.260;8.928;2023-06-24T00:27:36;52266.16;;;-145.69;nan
1726;BME280;41776;48.260;8.928;2023-06-24T00:30:03;52254.28;;;-145.69;nan
1726;BME280;41776;48.260;8.928;2023-06-24T00:32:30;52289.91;;;-145.69;nan
1726;BME280;41776;48.260;8.928;2023-06-24T00:35:03;52270.13;;;-145.69;nan
1726;BME280;41776;48.260;8.928;2023-06-24T00:37:29;52305.75;;;-145.69;nan
1726;BME280;41776;48.260;8.928;2023-06-24T00:39:57;52266.16;;;-145.69;nan
1726;BME280;41776;48.260;8.928;2023-06-24T00:42:24;52287.94;;;-145.69;nan
1726;BME280;41776;48.260;8.928;2023-06-24T00:44:52;52258.22;;;-145.69;nan
1726;BME280;41776;48.260;8.928;2023-06-24T00:47:18;52250.31;;;-145.69;nan
1726;BME280;41776;48.260;8.928;2023-06-24T00:49:48;52274.06;;;-145.69;nan
1726;BME280;41776;48.260;8.928;2023-06-24T00:52:20;52283.97;;;-145.69;nan
1726;BME280;41776;48.260;8.928;2023-06-24T00:54:49;52258.22;;;-145.69;nan
1726;BME280;41776;48.260;8.928;2023-06-24T00:57:21;52285.97;;;-145.69;nan
1726;BME280;41776;48.260;8.928;2023-06-24T00:59:51;52309.72;;;-145.69;nan
1726;BME280;41776;48.260;8.928;2023-06-24T01:02:20;52274.06;;;-145.69;nan
1726;BME280;41776;48.260;8.928;2023-06-24T01:04:48;52283.97;;;-145.69;nan
1726;BME280;41776;48.260;8.928;2023-06-24T01:07:16;52282.00;;;-145.69;nan
1726;BME280;41776;48.260;8.928;2023-06-24T01:09:44;52266.16;;;-145.69;nan
1726;BME280;41776;48.260;8.928;2023-06-24T01:12:11;52274.06;;;-145.69;nan
1726;BME280;41776;48.260;8.928;2023-06-24T01:14:44;52285.97;;;-145.69;nan
1726;BME280;41776;48.260;8.928;2023-06-24T01:17:15;52282.00;;;-145.69;nan
1726;BME280;41776;48.260;8.928;2023-06-24T01:20:03;52274.06;;;-145.69;nan
1726;BME280;41776;48.260;8.928;2023-06-24T01:23:21;52278.03;;;-145.69;nan
1726;BME280;41776;48.260;8.928;2023-06-24T01:28:57;52254.28;;;-145.69;nan
1726;BME280;41776;48.260;8.928;2023-06-24T01:31:34;52264.16;;;-145.69;nan
1726;BME280;41776;48.260;8.928;2023-06-24T01:34:07;52285.97;;;-145.69;nan
1726;BME280;41776;48.260;8.928;2023-06-24T01:36:40;52303.78;;;-145.69;nan
1726;BME280;41776;48.260;8.928;2023-06-24T01:39:11;52266.16;;;-145.69;nan
1726;BME280;41776;48.260;8.928;2023-06-24T01:41:49;52264.16;;;-145.69;nan
1726;BME280;41776;48.260;8.928;2023-06-24T01:44:21;52246.34;;;-145.69;nan
1726;BME280;41776;48.260;8.928;2023-06-24T01:46:55;52266.16;;;-145.69;nan
1726;BME280;41776;48.260;8.928;2023-06-24T01:49:28;52250.31;;;-145.69;nan
1726;BME280;41776;48.260;8.928;2023-06-24T01:51:59;52270.13;;;-145.69;nan
1726;BME280;41776;48.260;8.928;2023-06-24T01:54:30;52307.75;;;-145.69;nan
1726;BME280;41776;48.260;8.928;2023-06-24T01:56:58;52278.03;;;-145.69;nan
1726;BME280;41776;48.260;8.928;2023-06-24T01:59:28;52252.28;;;-145.69;nan
1726;BME280;41776;48.260;8.928;2023-06-24T02:01:57;52266.16;;;-145.69;nan
1726;BME280;41776;48.260;8.928;2023-06-24T02:04:31;52282.00;;;-145.69;nan
1726;BME280;41776;48.260;8.928;2023-06-24T02:07:01;52297.84;;;-145.69;nan
1726;BME280;41776;48.260;8.928;2023-06-24T02:09:33;52252.28;;;-145.69;nan
1726;BME280;41776;48.260;8.928;2023-06-24T02:12:03;52280.00;;;-145.69;nan
1726;BME280;41776;48.260;8.928;2023-06-24T02:14:33;52276.06;;;-145.69;nan
1726;BME280;41776;48.260;8.928;2023-06-24T02:17:08;52305.75;;;-145.69;nan
1726;BME280;41776;48.260;8.928;2023-06-24T02:19:43;52285.97;;;-145.69;nan
1726;BME280;41776;48.260;8.928;2023-06-24T02:22:11;52285.97;;;-145.69;nan
1726;BME280;41776;48.260;8.928;2023-06-24T02:24:38;52270.13;;;-145.69;nan
1726;BME280;41776;48.260;8.928;2023-06-24T02:27:07;52270.13;;;-145.69;nan
1726;BME280;41776;48.260;8.928;2023-06-24T02:29:37;52297.84;;;-145.69;nan
1726;BME280;41776;48.260;8.928;2023-06-24T02:32:07;52270.13;;;-145.69;nan
1726;BME280;41776;48.260;8.928;2023-06-24T02:34:34;52285.97;;;-145.69;nan
1726;BME280;41776;48.260;8.928;2023-06-24T02:37:00;52278.03;;;-145.69;nan
1726;BME280;41776;48.260;8.928;2023-06-24T02:39:27;52309.72;;;-145.69;nan
1726;BME280;41776;48.260;8.928;2023-06-24T02:41:54;52262.19;;;-145.69;nan
1726;BME280;41776;48.260;8.928;2023-06-24T02:44:20;52282.00;;;-145.69;nan
1726;BME280;41776;48.260;8.928;2023-06-24T02:46:50;52285.97;;;-145.69;nan
1726;BME280;41776;48.260;8.928;2023-06-24T02:49:20;52287.94;;;-145.69;nan
1726;BME280;41776;48.260;8.928;2023-06-24T02:51:48;52317.66;;;-145.69;nan
1726;BME280;41776;48.260;8.928;2023-06-24T02:54:17;52278.03;;;-145.69;nan
1726;BME280;41776;48.260;8.928;2023-06-24T02:56:44;52295.84;;;-145.69;nan
1726;BME280;41776;48.260;8.928;2023-06-24T02:59:14;52333.47;;;-145.69;nan
1726;BME280;41776;48.260;8.928;2023-06-24T03:01:40;52307.75;;;-145.69;nan
1726;BME280;41776;48.260;8.928;2023-06-24T03:04:10;52262.19;;;-145.69;nan
1726;BME280;41776;48.260;8.928;2023-06-24T03:06:39;52278.03;;;-145.69;nan
1726;BME280;41776;48.260;8.928;2023-06-24T03:09:08;52280.00;;;-145.69;nan
1726;BME280;41776;48.260;8.928;2023-06-24T03:11:40;52276.06;;;-145.69;nan
1726;BME280;41776;48.260;8.928;2023-06-24T03:14:07;52293.88;;;-145.69;nan
1726;BME280;41776;48.260;8.928;2023-06-24T03:16:36;52289.91;;;-145.69;nan
1726;BME280;41776;48.260;8.928;2023-06-24T03:19:06;52289.91;;;-145.69;nan
1726;BME280;41776;48.260;8.928;2023-06-24T03:21:33;52305.75;;;-145.69;nan
1726;BME280;41776;48.260;8.928;2023-06-24T03:24:01;52282.00;;;-145.69;nan
1726;BME280;41776;48.260;8.928;2023-06-24T03:26:32;52276.06;;;-145.69;nan
1726;BME280;41776;48.260;8.928;2023-06-24T03:28:59;52317.66;;;-145.69;nan
1726;BME280;41776;48.260;8.928;2023-06-24T03:31:26;52289.91;;;-145.69;nan
1726;BME280;41776;48.260;8.928;2023-06-24T03:33:53;52283.97;;;-145.69;nan
1726;BME280;41776;48.260;8.928;2023-06-24T03:36:19;52295.84;;;-145.69;nan
1726;BME280;41776;48.260;8.928;2023-06-24T03:38:49;52285.97;;;-145.69;nan
1726;BME280;41776;48.260;8.928;2023-06-24T03:41:17;52321.59;;;-145.69;nan
1726;BME280;41776;48.260;8.928;2023-06-24T03:43:43;52305.75;;;-145.69;nan
1726;BME280;41776;48.260;8.928;2023-06-24T03:46:10;52278.03;;;-145.69;nan
1726;BME280;41776;48.260;8.928;2023-06-24T03:48:39;52299.81;;;-145.69;nan
1726;BME280;41776;48.260;8.928;2023-06-24T03:51:06;52317.66;;;-145.69;nan
1726;BME280;41776;48.260;8.928;2023-06-24T03:53:32;52282.00;;;-145.69;nan
1726;BME280;41776;48.260;8.928;2023-06-24T03:55:59;52329.53;;;-145.69;nan
1726;BME280;41776;48.260;8.928;2023-06-24T03:58:27;52287.94;;;-145.69;nan
1726;BME280;41776;48.260;8.928;2023-06-24T04:00:54;52309.72;;;-145.69;nan
1726;BME280;41776;48.260;8.928;2023-06-24T04:03:23;52299.81;;;-145.69;nan
1726;BME280;41776;48.260;8.928;2023-06-24T04:05:52;52276.06;;;-145.69;nan
1726;BME280;41776;48.260;8.928;2023-06-24T04:08:19;52270.13;;;-145.69;nan
1726;BME280;41776;48.260;8.928;2023-06-24T04:10:45;52297.84;;;-145.69;nan
1726;BME280;41776;48.260;8.928;2023-06-24T04:13:14;52299.81;;;-145.69;nan
1726;BME280;41776;48.260;8.928;2023-06-24T04:15:42;52285.97;;;-145.69;nan
1726;BME280;41776;48.260;8.928;2023-06-24T04:18:12;52297.84;;;-145.69;nan
1726;BME280;41776;48.260;8.928;2023-06-24T04:20:39;52301.81;;;-145.69;nan
1726;BME280;41776;48.260;8.928;2023-06-24T04:23:06;52283.97;;;-145.69;nan
1726;BME280;41776;48.260;8.928;2023-06-24T04:25:34;52289.91;;;-145.69;nan
1726;BME280;41776;48.260;8.928;2023-06-24T04:28:01;52289.91;;;-145.69;nan
1726;BME280;41776;48.260;8.928;2023-06-24T04:30:28;52276.06;;;-145.69;nan
1726;BME280;41776;48.260;8.928;2023-06-24T04:32:56;52264.16;;;-145.69;nan
1726;BME280;41776;48.260;8.928;2023-06-24T04:35:22;52305.75;;;-145.69;nan
1726;BME280;41776;48.260;8.928;2023-06-24T04:37:49;52276.06;;;-145.69;nan
1726;BME280;41776;48.260;8.928;2023-06-24T04:40:19;52321.59;;;-145.69;nan
1726;BME280;41776;48.260;8.928;2023-06-24T04:42:47;52272.09;;;-145.69;nan
1726;BME280;41776;48.260;8.928;2023-06-24T04:45:14;52270.13;;;-145.69;nan
1726;BME280;41776;48.260;8.928;2023-06-24T04:47:41;52258.22;;;-145.69;nan
1726;BME280;41776;48.260;8.928;2023-06-24T04:50:10;52270.13;;;-145.69;nan
1726;BME280;41776;48.260;8.928;2023-06-24T04:52:41;52264.16;;;-145.69;nan
1726;BME280;41776;48.260;8.928;2023-06-24T04:55:08;52289.91;;;-145.69;nan
1726;BME280;41776;48.260;8.928;2023-06-24T04:57:35;52250.31;;;-145.69;nan
1726;BME280;41776;48.260;8.928;2023-06-24T05:00:02;52303.78;;;-145.69;nan
1726;BME280;41776;48.260;8.928;2023-06-24T05:02:30;52262.19;;;-145.69;nan
1726;BME280;41776;48.260;8.928;2023-06-24T05:04:58;52276.06;;;-145.69;nan
1726;BME280;41776;48.260;8.928;2023-06-24T05:07:26;52262.19;;;-145.69;nan
1726;BME280;41776;48.260;8.928;2023-06-24T05:09:52;52291.91;;;-145.69;nan
1726;BME280;41776;48.260;8.928;2023-06-24T05:12:19;52289.91;;;-145.69;nan
1726;BME280;41776;48.260;8.928;2023-06-24T05:14:54;52262.19;;;-145.69;nan
1726;BME280;41776;48.260;8.928;2023-06-24T05:17:21;52252.28;;;-145.69;nan
1726;BME280;41776;48.260;8.928;2023-06-24T05:19:47;52280.00;;;-145.69;nan
1726;BME280;41776;48.260;8.928;2023-06-24T05:22:14;52307.75;;;-145.69;nan
1726;BME280;41776;48.260;8.928;2023-06-24T05:24:42;52270.13;;;-145.69;nan
1726;BME280;41776;48.260;8.928;2023-06-24T05:27:09;52272.09;;;-145.69;nan
1726;BME280;41776;48.260;8.928;2023-06-24T05:29:35;52282.00;;;-145.69;nan
1726;BME280;41776;48.260;8.928;2023-06-24T05:32:03;52246.34;;;-145.69;nan
1726;BME280;41776;48.260;8.928;2023-06-24T05:34:31;52248.34;;;-145.69;nan
1726;BME280;41776;48.260;8.928;2023-06-24T05:36:59;52293.88;;;-145.69;nan
1726;BME280;41776;48.260;8.928;2023-06-24T05:39:25;52287.94;;;-145.69;nan
1726;BME280;41776;48.260;8.928;2023-06-24T05:41:53;52297.84;;;-145.69;nan
1726;BME280;41776;48.260;8.928;2023-06-24T05:44:20;52226.53;;;-145.69;nan
1726;BME280;41776;48.260;8.928;2023-06-24T05:46:48;52282.00;;;-145.69;nan
1726;BME280;41776;48.260;8.928;2023-06-24T05:49:14;52234.47;;;-145.69;nan
1726;BME280;41776;48.260;8.928;2023-06-24T05:51:41;52287.94;;;-145.69;nan
1726;BME280;41776;48.260;8.928;2023-06-24T05:54:07;52280.00;;;-145.69;nan
1726;BME280;41776;48.260;8.928;2023-06-24T05:56:34;52274.06;;;-145.69;nan
1726;BME280;41776;48.260;8.928;2023-06-24T05:59:02;52254.28;;;-145.69;nan
1726;BME280;41776;48.260;8.928;2023-06-24T06:01:30;52258.22;;;-145.69;nan
1726;BME280;41776;48.260;8.928;2023-06-24T06:03:57;52230.50;;;-145.69;nan
1726;BME280;41776;48.260;8.928;2023-06-24T06:06:23;52234.47;;;-145.69;nan
1726;BME280;41776;48.260;8.928;2023-06-24T06:08:50;52228.53;;;-145.69;nan
1726;BME280;41776;48.260;8.928;2023-06-24T06:11:16;52242.38;;;-145.69;nan
1726;BME280;41776;48.260;8.928;2023-06-24T06:13:43;52246.34;;;-145.69;nan
1726;BME280;41776;48.260;8.928;2023-06-24T06:16:10;52238.44;;;-145.69;nan
1726;BME280;41776;48.260;8.928;2023-06-24T06:18:37;52200.81;;;-145.69;nan
1726;BME280;41776;48.260;8.928;2023-06-24T06:21:03;52234.47;;;-145.69;nan
1726;BME280;41776;48.260;8.928;2023-06-24T06:23:30;52244.38;;;-145.69;nan
1726;BME280;41776;48.260;8.928;2023-06-24T06:25:57;52230.50;;;-145.69;nan
1726;BME280;41776;48.260;8.928;2023-06-24T06:28:23;52238.44;;;-145.69;nan
1726;BME280;41776;48.260;8.928;2023-06-24T06:30:50;52252.28;;;-145.69;nan
1726;BME280;41776;48.260;8.928;2023-06-24T06:33:18;52218.63;;;-145.69;nan
1726;BME280;41776;48.260;8.928;2023-06-24T06:35:44;52218.63;;;-145.69;nan
1726;BME280;41776;48.260;8.928;2023-06-24T06:38:11;52214.66;;;-145.69;nan
1726;BME280;41776;48.260;8.928;2023-06-24T06:40:37;52230.50;;;-145.69;nan
1726;BME280;41776;48.260;8.928;2023-06-24T06:43:04;52226.53;;;-145.69;nan
1726;BME280;41776;48.260;8.928;2023-06-24T06:45:30;52212.69;;;-145.69;nan
1726;BME280;41776;48.260;8.928;2023-06-24T06:47:57;52212.69;;;-145.69;nan
1726;BME280;41776;48.260;8.928;2023-06-24T06:50:25;52202.78;;;-145.69;nan
1726;BME280;41776;48.260;8.928;2023-06-24T06:52:51;52198.81;;;-145.69;nan
1726;BME280;41776;48.260;8.928;2023-06-24T06:55:18;52179.03;;;-145.69;nan
1726;BME280;41776;48.260;8.928;2023-06-24T06:57:44;52218.63;;;-145.69;nan
1726;BME280;41776;48.260;8.928;2023-06-24T07:00:12;52194.88;;;-145.69;nan
1726;BME280;41776;48.260;8.928;2023-06-24T07:02:38;52218.63;;;-145.69;nan
1726;BME280;41776;48.260;8.928;2023-06-24T07:05:05;52202.78;;;-145.69;nan
1726;BME280;41776;48.260;8.928;2023-06-24T07:07:33;52171.09;;;-145.69;nan
1726;BME280;41776;48.260;8.928;2023-06-24T07:09:59;52206.75;;;-145.69;nan
1726;BME280;41776;48.260;8.928;2023-06-24T07:12:26;52210.72;;;-145.69;nan
1726;BME280;41776;48.260;8.928;2023-06-24T07:14:52;52175.06;;;-145.69;nan
1726;BME280;41776;48.260;8.928;2023-06-24T07:17:19;52179.03;;;-145.69;nan
1726;BME280;41776;48.260;8.928;2023-06-24T07:19:45;52190.91;;;-145.69;nan
1726;BME280;41776;48.260;8.928;2023-06-24T07:22:12;52179.03;;;-145.69;nan
1726;BME280;41776;48.260;8.928;2023-06-24T07:24:41;52204.75;;;-145.69;nan
1726;BME280;41776;48.260;8.928;2023-06-24T07:27:07;52208.72;;;-145.69;nan
1726;BME280;41776;48.260;8.928;2023-06-24T07:29:34;52161.19;;;-145.69;nan
1726;BME280;41776;48.260;8.928;2023-06-24T07:32:01;52175.06;;;-145.69;nan
1726;BME280;41776;48.260;8.928;2023-06-24T07:34:29;52163.19;;;-145.69;nan
1726;BME280;41776;48.260;8.928;2023-06-24T07:36:55;52204.75;;;-145.69;nan
1726;BME280;41776;48.260;8.928;2023-06-24T07:39:22;52196.84;;;-145.69;nan
1726;BME280;41776;48.260;8.928;2023-06-24T07:41:50;52196.84;;;-145.69;nan
1726;BME280;41776;48.260;8.928;2023-06-24T07:44:20;52194.88;;;-145.69;nan
1726;BME280;41776;48.260;8.928;2023-06-24T07:46:46;52175.06;;;-145.69;nan
1726;BME280;41776;48.260;8.928;2023-06-24T07:49:13;52163.19;;;-145.69;nan
1726;BME280;41776;48.260;8.928;2023-06-24T07:51:40;52159.22;;;-145.69;nan
1726;BME280;41776;48.260;8.928;2023-06-24T07:54:06;52190.91;;;-145.69;nan
1726;BME280;41776;48.260;8.928;2023-06-24T07:56:33;52196.84;;;-145.69;nan
1726;BME280;41776;48.260;8.928;2023-06-24T07:59:02;52167.13;;;-145.69;nan
1726;BME280;41776;48.260;8.928;2023-06-24T08:01:29;52186.94;;;-145.69;nan
1726;BME280;41776;48.260;8.928;2023-06-24T08:03:55;52171.09;;;-145.69;nan
1726;BME280;41776;48.260;8.928;2023-06-24T08:06:22;52202.78;;;-145.69;nan
1726;BME280;41776;48.260;8.928;2023-06-24T08:08:48;52159.22;;;-145.69;nan
1726;BME280;41776;48.260;8.928;2023-06-24T08:11:15;52143.38;;;-145.69;nan
1726;BME280;41776;48.260;8.928;2023-06-24T08:13:41;52190.91;;;-145.69;nan
1726;BME280;41776;48.260;8.928;2023-06-24T08:16:09;52179.03;;;-145.69;nan
1726;BME280;41776;48.260;8.928;2023-06-24T08:18:36;52179.03;;;-145.69;nan
1726;BME280;41776;48.260;8.928;2023-06-24T08:21:02;52167.13;;;-145.69;nan
1726;BME280;41776;48.260;8.928;2023-06-24T08:23:29;52159.22;;;-145.69;nan
1726;BME280;41776;48.260;8.928;2023-06-24T08:25:55;52175.06;;;-145.69;nan
1726;BME280;41776;48.260;8.928;2023-06-24T08:28:22;52151.28;;;-145.69;nan
1726;BME280;41776;48.260;8.928;2023-06-24T08:30:48;52171.09;;;-145.69;nan
1726;BME280;41776;48.260;8.928;2023-06-24T08:33:16;52139.41;;;-145.69;nan
1726;BME280;41776;48.260;8.928;2023-06-24T08:35:43;52175.06;;;-145.69;nan
1726;BME280;41776;48.260;8.928;2023-06-24T08:38:09;52165.16;;;-145.69;nan
1726;BME280;41776;48.260;8.928;2023-06-24T08:40:36;52163.19;;;-145.69;nan
1726;BME280;41776;48.260;8.928;2023-06-24T08:43:07;52181.00;;;-145.69;nan
1726;BME280;41776;48.260;8.928;2023-06-24T08:45:34;52157.25;;;-145.69;nan
1726;BME280;41776;48.260;8.928;2023-06-24T08:48:03;52151.28;;;-145.69;nan
1726;BME280;41776;48.260;8.928;2023-06-24T08:50:35;52123.56;;;-145.69;nan
1726;BME280;41776;48.260;8.928;2023-06-24T08:53:05;52155.25;;;-145.69;nan
1726;BME280;41776;48.260;8.928;2023-06-24T08:55:36;52151.28;;;-145.69;nan
1726;BME280;41776;48.260;8.928;2023-06-24T08:58:06;52165.16;;;-145.69;nan
1726;BME280;41776;48.260;8.928;2023-06-24T09:00:33;52127.53;;;-145.69;nan
1726;BME280;41776;48.260;8.928;2023-06-24T09:03:00;52147.34;;;-145.69;nan
1726;BME280;41776;48.260;8.928;2023-06-24T09:05:26;52121.59;;;-145.69;nan
1726;BME280;41776;48.260;8.928;2023-06-24T09:07:54;52115.66;;;-145.69;nan
1726;BME280;41776;48.260;8.928;2023-06-24T09:10:31;52119.63;;;-145.69;nan
1726;BME280;41776;48.260;8.928;2023-06-24T09:12:58;52097.84;;;-145.69;nan
1726;BME280;41776;48.260;8.928;2023-06-24T09:15:24;52107.72;;;-145.69;nan
1726;BME280;41776;48.260;8.928;2023-06-24T09:17:51;52091.88;;;-145.69;nan
1726;BME280;41776;48.260;8.928;2023-06-24T09:20:19;52074.06;;;-145.69;nan
1726;BME280;41776;48.260;8.928;2023-06-24T09:22:47;52107.72;;;-145.69;nan
1726;BME280;41776;48.260;8.928;2023-06-24T09:25:17;52087.94;;;-145.69;nan
1726;BME280;41776;48.260;8.928;2023-06-24T09:27:47;52068.13;;;-145.69;nan
1726;BME280;41776;48.260;8.928;2023-06-24T09:30:18;52082.00;;;-145.69;nan
1726;BME280;41776;48.260;8.928;2023-06-24T09:32:45;52107.72;;;-145.69;nan
1726;BME280;41776;48.260;8.928;2023-06-24T09:35:12;52082.00;;;-145.69;nan
1726;BME280;41776;48.260;8.928;2023-06-24T09:37:38;52101.78;;;-145.69;nan
1726;BME280;41776;48.260;8.928;2023-06-24T09:40:06;52115.66;;;-145.69;nan
1726;BME280;41776;48.260;8.928;2023-06-24T09:42:36;52099.81;;;-145.69;nan
1726;BME280;41776;48.260;8.928;2023-06-24T09:45:06;52074.06;;;-145.69;nan
1726;BME280;41776;48.260;8.928;2023-06-24T09:47:32;52080.00;;;-145.69;nan
1726;BME280;41776;48.260;8.928;2023-06-24T09:49:59;52064.16;;;-145.69;nan
1726;BME280;41776;48.260;8.928;2023-06-24T09:52:26;52062.19;;;-145.69;nan
1726;BME280;41776;48.260;8.928;2023-06-24T09:54:54;52076.03;;;-145.69;nan
1726;BME280;41776;48.260;8.928;2023-06-24T09:57:24;52076.03;;;-145.69;nan
1726;BME280;41776;48.260;8.928;2023-06-24T09:59:53;52091.88;;;-145.69;nan
1726;BME280;41776;48.260;8.928;2023-06-24T10:02:20;52111.69;;;-145.69;nan
1726;BME280;41776;48.260;8.928;2023-06-24T10:04:48;52070.09;;;-145.69;nan
1726;BME280;41776;48.260;8.928;2023-06-24T10:07:15;52127.53;;;-145.69;nan
1726;BME280;41776;48.260;8.928;2023-06-24T10:09:42;52064.16;;;-145.69;nan
1726;BME280;41776;48.260;8.928;2023-06-24T10:12:09;52087.94;;;-145.69;nan
1726;BME280;41776;48.260;8.928;2023-06-24T10:14:36;52080.00;;;-145.69;nan
1726;BME280;41776;48.260;8.928;2023-06-24T10:17:05;52068.13;;;-145.69;nan
1726;BME280;41776;48.260;8.928;2023-06-24T10:19:38;52056.25;;;-145.69;nan
1726;BME280;41776;48.260;8.928;2023-06-24T10:22:07;52048.31;;;-145.69;nan
1726;BME280;41776;48.260;8.928;2023-06-24T10:24:36;52080.00;;;-145.69;nan
1726;BME280;41776;48.260;8.928;2023-06-24T10:27:06;52056.25;;;-145.69;nan
1726;BME280;41776;48.260;8.928;2023-06-24T10:29:36;52080.00;;;-145.69;nan
1726;BME280;41776;48.260;8.928;2023-06-24T10:32:06;52076.03;;;-145.69;nan
1726;BME280;41776;48.260;8.928;2023-06-24T10:34:34;52080.00;;;-145.69;nan
1726;BME280;41776;48.260;8.928;2023-06-24T10:37:08;52093.88;;;-145.69;nan
1726;BME280;41776;48.260;8.928;2023-06-24T10:39:46;52080.00;;;-145.69;nan
1726;BME280;41776;48.260;8.928;2023-06-24T10:42:41;52060.22;;;-145.69;nan
1726;BME280;41776;48.260;8.928;2023-06-24T10:45:16;52048.31;;;-145.69;nan
1726;BME280;41776;48.260;8.928;2023-06-24T10:47:46;52048.31;;;-145.69;nan
1726;BME280;41776;48.260;8.928;2023-06-24T10:50:14;52060.22;;;-145.69;nan
1726;BME280;41776;48.260;8.928;2023-06-24T10:52:42;52072.09;;;-145.69;nan
1726;BME280;41776;48.260;8.928;2023-06-24T10:55:09;52060.22;;;-145.69;nan
1726;BME280;41776;48.260;8.928;2023-06-24T10:57:36;52068.13;;;-145.69;nan
1726;BME280;41776;48.260;8.928;2023-06-24T11:00:03;52022.59;;;-145.69;nan
1726;BME280;41776;48.260;8.928;2023-06-24T11:02:30;52072.09;;;-145.69;nan
1726;BME280;41776;48.260;8.928;2023-06-24T11:04:59;52064.16;;;-145.69;nan
1726;BME280;41776;48.260;8.928;2023-06-24T11:07:28;52044.38;;;-145.69;nan
1726;BME280;41776;48.260;8.928;2023-06-24T11:09:58;52028.53;;;-145.69;nan
1726;BME280;41776;48.260;8.928;2023-06-24T11:12:25;52008.72;;;-145.69;nan
1726;BME280;41776;48.260;8.928;2023-06-24T11:14:55;52050.31;;;-145.69;nan
1726;BME280;41776;48.260;8.928;2023-06-24T11:17:23;52040.41;;;-145.69;nan
1726;BME280;41776;48.260;8.928;2023-06-24T11:19:49;52044.38;;;-145.69;nan
1726;BME280;41776;48.260;8.928;2023-06-24T11:22:17;52040.41;;;-145.69;nan
1726;BME280;41776;48.260;8.928;2023-06-24T11:24:44;52048.31;;;-145.69;nan
1726;BME280;41776;48.260;8.928;2023-06-24T11:27:15;52036.44;;;-145.69;nan
1726;BME280;41776;48.260;8.928;2023-06-24T11:29:44;52028.53;;;-145.69;nan
1726;BME280;41776;48.260;8.928;2023-06-24T11:32:11;52012.69;;;-145.69;nan
1726;BME280;41776;48.260;8.928;2023-06-24T11:34:38;52022.59;;;-145.69;nan
1726;BME280;41776;48.260;8.928;2023-06-24T11:37:11;52000.81;;;-145.69;nan
1726;BME280;41776;48.260;8.928;2023-06-24T11:40:01;51996.84;;;-145.69;nan
1726;BME280;41776;48.260;8.928;2023-06-24T11:42:30;52020.59;;;-145.69;nan
1726;BME280;41776;48.260;8.928;2023-06-24T11:44:59;52024.56;;;-145.69;nan
1726;BME280;41776;48.260;8.928;2023-06-24T11:47:31;51996.84;;;-145.69;nan
1726;BME280;41776;48.260;8.928;2023-06-24T11:49:57;52008.72;;;-145.69;nan
1726;BME280;41776;48.260;8.928;2023-06-24T11:52:32;51992.88;;;-145.69;nan
1726;BME280;41776;48.260;8.928;2023-06-24T11:55:00;52018.63;;;-145.69;nan
1726;BME280;41776;48.260;8.928;2023-06-24T11:57:52;52044.38;;;-145.69;nan
1726;BME280;41776;48.260;8.928;2023-06-24T12:00:20;52026.53;;;-145.69;nan
1726;BME280;41776;48.260;8.928;2023-06-24T12:02:50;52024.56;;;-145.69;nan
1726;BME280;41776;48.260;8.928;2023-06-24T12:05:25;52044.38;;;-145.69;nan
1726;BME280;41776;48.260;8.928;2023-06-24T12:08:01;52056.25;;;-145.69;nan
1726;BME280;41776;48.260;8.928;2023-06-24T12:10:30;52064.16;;;-145.69;nan
1726;BME280;41776;48.260;8.928;2023-06-24T12:12:57;52044.38;;;-145.69;nan
1726;BME280;41776;48.260;8.928;2023-06-24T12:15:24;52032.47;;;-145.69;nan
1726;BME280;41776;48.260;8.928;2023-06-24T12:17:51;52060.22;;;-145.69;nan
1726;BME280;41776;48.260;8.928;2023-06-24T12:20:17;52036.44;;;-145.69;nan
1726;BME280;41776;48.260;8.928;2023-06-24T12:22:44;52040.41;;;-145.69;nan
1726;BME280;41776;48.260;8.928;2023-06-24T12:25:11;52020.59;;;-145.69;nan
1726;BME280;41776;48.260;8.928;2023-06-24T12:27:42;52040.41;;;-145.69;nan
1726;BME280;41776;48.260;8.928;2023-06-24T12:30:09;52018.63;;;-145.69;nan
1726;BME280;41776;48.260;8.928;2023-06-24T12:32:36;52038.44;;;-145.69;nan
1726;BME280;41776;48.260;8.928;2023-06-24T12:35:04;52026.53;;;-145.69;nan
1726;BME280;41776;48.260;8.928;2023-06-24T12:37:31;52048.31;;;-145.69;nan
1726;BME280;41776;48.260;8.928;2023-06-24T12:39:58;52054.25;;;-145.69;nan
1726;BME280;41776;48.260;8.928;2023-06-24T12:42:26;52056.25;;;-145.69;nan
1726;BME280;41776;48.260;8.928;2023-06-24T12:45:18;52038.44;;;-145.69;nan
1726;BME280;41776;48.260;8.928;2023-06-24T12:58:10;52028.53;;;-145.69;nan
1726;BME280;41776;48.260;8.928;2023-06-24T13:04:41;52018.63;;;-145.69;nan
1726;BME280;41776;48.260;8.928;2023-06-24T13:07:07;52012.69;;;-145.69;nan
1726;BME280;41776;48.260;8.928;2023-06-24T13:12:54;52012.69;;;-145.69;nan
1726;BME280;41776;48.260;8.928;2023-06-24T13:16:01;52004.75;;;-145.69;nan
1726;BME280;41776;48.260;8.928;2023-06-24T13:18:41;52012.69;;;-145.69;nan
1726;BME280;41776;48.260;8.928;2023-06-24T13:21:11;52024.56;;;-145.69;nan
1726;BME280;41776;48.260;8.928;2023-06-24T13:23:37;52012.69;;;-145.69;nan
1726;BME280;41776;48.260;8.928;2023-06-24T13:26:06;51973.06;;;-145.69;nan
1726;BME280;41776;48.260;8.928;2023-06-24T13:28:36;51923.56;;;-145.69;nan
1726;BME280;41776;48.260;8.928;2023-06-24T13:31:05;51852.28;;;-145.69;nan
1726;BME280;41776;48.260;8.928;2023-06-24T13:33:37;51775.06;;;-145.69;nan
1726;BME280;41776;48.260;8.928;2023-06-24T13:36:04;51753.28;;;-145.69;nan
1726;BME280;41776;48.260;8.928;2023-06-24T13:38:39;51707.75;;;-145.69;nan